sensor_id;sensor_type;location;lat;lon;timestamp;pressure;altitude;pressure_sealevel;temperature;humidity
20752;BME280;10536;51.582;5.016;2022-09-23T00:03:01;101804.25;;;13.73;100.00
20752;BME280;10536;51.582;5.016;2022-09-23T00:08:03;101797.34;;;13.72;100.00
20752;BME280;10536;51.582;5.016;2022-09-23T00:13:04;101797.38;;;13.69;100.00
20752;BME280;10536;51.582;5.016;2022-09-23T00:18:05;101797.25;;;13.79;100.00
20752;BME280;10536;51.582;5.016;2022-09-23T00:23:07;101785.19;;;13.72;100.00
20752;BME280;10536;51.582;5.016;2022-09-23T00:28:08;101784.19;;;13.84;100.00
20752;BME280;10536;51.582;5.016;2022-09-23T00:33:08;101774.44;;;14.03;100.00
20752;BME280;10536;51.582;5.016;2022-09-23T00:38:09;101775.25;;;14.08;100.00
20752;BME280;10536;51.582;5.016;2022-09-23T00:43:12;101776.38;;;13.86;100.00
20752;BME280;10536;51.582;5.016;2022-09-23T00:48:18;101778.13;;;13.85;100.00
20752;BME280;10536;51.582;5.016;2022-09-23T00:53:21;101775.66;;;13.73;100.00
20752;BME280;10536;51.582;5.016;2022-09-23T00:58:25;101781.81;;;13.66;100.00
20752;BME280;10536;51.582;5.016;2022-09-23T01:03:27;101774.09;;;13.58;100.00
20752;BME280;10536;51.582;5.016;2022-09-23T01:08:28;101767.22;;;13.51;100.00
20752;BME280;10536;51.582;5.016;2022-09-23T01:19:04;101762.00;;;13.55;100.00
20752;BME280;10536;51.582;5.016;2022-09-23T01:40:20;101757.66;;;13.57;100.00
20752;BME280;10536;51.582;5.016;2022-09-23T01:45:41;101744.91;;;13.30;100.00
20752;BME280;10536;51.582;5.016;2022-09-23T01:50:50;101754.34;;;13.40;100.00
20752;BME280;10536;51.582;5.016;2022-09-23T01:55:59;101754.47;;;13.23;100.00
20752;BME280;10536;51.582;5.016;2022-09-23T02:01:04;101749.34;;;13.14;100.00
20752;BME280;10536;51.582;5.016;2022-09-23T02:06:11;101740.66;;;13.19;100.00
20752;BME280;10536;51.582;5.016;2022-09-23T02:11:14;101744.06;;;13.24;100.00
20752;BME280;10536;51.582;5.016;2022-09-23T02:16:23;101731.16;;;13.17;100.00
20752;BME280;10536;51.582;5.016;2022-09-23T02:21:31;101731.00;;;13.35;100.00
20752;BME280;10536;51.582;5.016;2022-09-23T02:26:36;101737.19;;;13.20;100.00
20752;BME280;10536;51.582;5.016;2022-09-23T02:31:57;101723.38;;;13.12;100.00
20752;BME280;10536;51.582;5.016;2022-09-23T02:37:08;101713.84;;;13.16;100.00
20752;BME280;10536;51.582;5.016;2022-09-23T02:42:19;101710.19;;;13.40;100.00
20752;BME280;10536;51.582;5.016;2022-09-23T02:47:23;101710.38;;;13.14;100.00
20752;BME280;10536;51.582;5.016;2022-09-23T02:52:26;101704.53;;;12.90;100.00
20752;BME280;10536;51.582;5.016;2022-09-23T02:57:27;101707.06;;;12.98;100.00
20752;BME280;10536;51.582;5.016;2022-09-23T03:02:34;101705.44;;;12.86;100.00
20752;BME280;10536;51.582;5.016;2022-09-23T03:13:58;101699.22;;;13.04;100.00
20752;BME280;10536;51.582;5.016;2022-09-23T03:24:14;101702.19;;;12.61;100.00
20752;BME280;10536;51.582;5.016;2022-09-23T03:29:15;101695.28;;;12.58;100.00
20752;BME280;10536;51.582;5.016;2022-09-23T03:34:21;101703.94;;;12.60;100.00
20752;BME280;10536;51.582;5.016;2022-09-23T03:39:25;101696.19;;;12.56;100.00
20752;BME280;10536;51.582;5.016;2022-09-23T03:44:28;101690.03;;;12.68;100.00
20752;BME280;10536;51.582;5.016;2022-09-23T03:49:31;101680.53;;;12.65;100.00
20752;BME280;10536;51.582;5.016;2022-09-23T03:54:34;101671.69;;;12.89;100.00
20752;BME280;10536;51.582;5.016;2022-09-23T03:59:34;101669.03;;;12.95;100.00
20752;BME280;10536;51.582;5.016;2022-09-23T04:04:37;101661.38;;;12.81;100.00
20752;BME280;10536;51.582;5.016;2022-09-23T04:09:38;101659.44;;;13.02;100.00
20752;BME280;10536;51.582;5.016;2022-09-23T04:14:38;101655.84;;;13.14;100.00
20752;BME280;10536;51.582;5.016;2022-09-23T04:19:39;101659.25;;;13.20;100.00
20752;BME280;10536;51.582;5.016;2022-09-23T04:24:39;101654.28;;;12.97;100.00
20752;BME280;10536;51.582;5.016;2022-09-23T04:29:40;101653.22;;;13.17;100.00
20752;BME280;10536;51.582;5.016;2022-09-23T04:34:41;101644.53;;;13.18;100.00
20752;BME280;10536;51.582;5.016;2022-09-23T04:39:41;101639.25;;;13.27;100.00
20752;BME280;10536;51.582;5.016;2022-09-23T04:44:42;101636.44;;;13.49;100.00
20752;BME280;10536;51.582;5.016;2022-09-23T04:49:42;101635.69;;;13.37;100.00
20752;BME280;10536;51.582;5.016;2022-09-23T04:54:43;101634.19;;;13.15;100.00
20752;BME280;10536;51.582;5.016;2022-09-23T04:59:43;101642.75;;;13.23;100.00
20752;BME280;10536;51.582;5.016;2022-09-23T05:04:44;101641.16;;;13.13;100.00
20752;BME280;10536;51.582;5.016;2022-09-23T05:09:45;101645.38;;;13.23;100.00
20752;BME280;10536;51.582;5.016;2022-09-23T05:14:45;101643.63;;;13.23;100.00
20752;BME280;10536;51.582;5.016;2022-09-23T05:19:45;101644.28;;;13.46;100.00
20752;BME280;10536;51.582;5.016;2022-09-23T05:24:46;101652.13;;;13.41;100.00
20752;BME280;10536;51.582;5.016;2022-09-23T05:29:47;101642.19;;;13.74;100.00
20752;BME280;10536;51.582;5.016;2022-09-23T05:34:48;101652.50;;;13.81;100.00
20752;BME280;10536;51.582;5.016;2022-09-23T05:39:48;101657.38;;;14.06;100.00
20752;BME280;10536;51.582;5.016;2022-09-23T05:44:49;101667.59;;;14.17;100.00
20752;BME280;10536;51.582;5.016;2022-09-23T05:49:49;101664.31;;;14.04;100.00
20752;BME280;10536;51.582;5.016;2022-09-23T05:54:49;101668.53;;;14.13;100.00
20752;BME280;10536;51.582;5.016;2022-09-23T05:59:50;101658.94;;;14.16;100.00
20752;BME280;10536;51.582;5.016;2022-09-23T06:04:50;101658.53;;;13.83;100.00
20752;BME280;10536;51.582;5.016;2022-09-23T06:09:51;101651.66;;;13.79;100.00
20752;BME280;10536;51.582;5.016;2022-09-23T06:14:53;101654.88;;;13.98;100.00
20752;BME280;10536;51.582;5.016;2022-09-23T06:19:53;101661.16;;;13.80;100.00
20752;BME280;10536;51.582;5.016;2022-09-23T06:24:54;101652.47;;;13.83;100.00
20752;BME280;10536;51.582;5.016;2022-09-23T06:29:54;101651.03;;;14.24;100.00
20752;BME280;10536;51.582;5.016;2022-09-23T06:34:54;101644.91;;;14.27;100.00
20752;BME280;10536;51.582;5.016;2022-09-23T06:39:55;101643.69;;;14.49;100.00
20752;BME280;10536;51.582;5.016;2022-09-23T06:44:56;101650.34;;;14.69;100.00
20752;BME280;10536;51.582;5.016;2022-09-23T06:49:56;101652.16;;;14.64;100.00
20752;BME280;10536;51.582;5.016;2022-09-23T06:54:57;101649.56;;;14.64;100.00
20752;BME280;10536;51.582;5.016;2022-09-23T06:59:57;101643.72;;;14.48;100.00
20752;BME280;10536;51.582;5.016;2022-09-23T07:04:58;101638.25;;;14.65;100.00
20752;BME280;10536;51.582;5.016;2022-09-23T07:09:58;101634.53;;;14.78;100.00
20752;BME280;10536;51.582;5.016;2022-09-23T07:14:59;101635.19;;;14.92;100.00
20752;BME280;10536;51.582;5.016;2022-09-23T07:20:00;101629.59;;;15.12;100.00
20752;BME280;10536;51.582;5.016;2022-09-23T07:25:01;101632.69;;;15.31;100.00
20752;BME280;10536;51.582;5.016;2022-09-23T07:30:01;101627.50;;;15.72;100.00
20752;BME280;10536;51.582;5.016;2022-09-23T07:35:02;101631.38;;;15.52;100.00
20752;BME280;10536;51.582;5.016;2022-09-23T07:40:03;101636.66;;;15.51;100.00
20752;BME280;10536;51.582;5.016;2022-09-23T07:45:04;101638.00;;;15.70;100.00
20752;BME280;10536;51.582;5.016;2022-09-23T07:50:07;101646.03;;;16.02;100.00
20752;BME280;10536;51.582;5.016;2022-09-23T07:55:10;101638.69;;;16.17;100.00
20752;BME280;10536;51.582;5.016;2022-09-23T08:00:12;101646.81;;;16.43;100.00
20752;BME280;10536;51.582;5.016;2022-09-23T08:05:12;101634.88;;;16.67;100.00
20752;BME280;10536;51.582;5.016;2022-09-23T08:10:13;101640.53;;;16.50;100.00
20752;BME280;10536;51.582;5.016;2022-09-23T08:15:15;101632.31;;;16.65;100.00
20752;BME280;10536;51.582;5.016;2022-09-23T08:20:16;101642.78;;;17.00;100.00
20752;BME280;10536;51.582;5.016;2022-09-23T08:25:37;101630.97;;;17.17;100.00
20752;BME280;10536;51.582;5.016;2022-09-23T08:30:38;101628.72;;;17.35;100.00
20752;BME280;10536;51.582;5.016;2022-09-23T08:35:38;101623.13;;;17.77;100.00
20752;BME280;10536;51.582;5.016;2022-09-23T08:40:42;101631.59;;;18.15;100.00
20752;BME280;10536;51.582;5.016;2022-09-23T08:45:43;101628.53;;;18.55;100.00
20752;BME280;10536;51.582;5.016;2022-09-23T08:50:52;101627.25;;;18.67;100.00
20752;BME280;10536;51.582;5.016;2022-09-23T08:55:57;101625.88;;;18.82;100.00
20752;BME280;10536;51.582;5.016;2022-09-23T09:01:09;101626.97;;;19.25;100.00
20752;BME280;10536;51.582;5.016;2022-09-23T09:06:16;101614.59;;;19.05;100.00
20752;BME280;10536;51.582;5.016;2022-09-23T09:11:18;101616.56;;;19.47;100.00
20752;BME280;10536;51.582;5.016;2022-09-23T09:16:35;101614.84;;;19.68;100.00
20752;BME280;10536;51.582;5.016;2022-09-23T09:21:46;101611.03;;;19.55;100.00
20752;BME280;10536;51.582;5.016;2022-09-23T09:26:47;101620.13;;;19.92;100.00
20752;BME280;10536;51.582;5.016;2022-09-23T09:31:49;101627.13;;;19.91;100.00
20752;BME280;10536;51.582;5.016;2022-09-23T09:42:06;101616.16;;;20.04;100.00
20752;BME280;10536;51.582;5.016;2022-09-23T09:52:32;101607.81;;;20.15;100.00
20752;BME280;10536;51.582;5.016;2022-09-23T09:57:37;101597.06;;;20.43;100.00
20752;BME280;10536;51.582;5.016;2022-09-23T10:02:41;101594.19;;;20.27;100.00
20752;BME280;10536;51.582;5.016;2022-09-23T10:07:41;101588.75;;;20.52;100.00
20752;BME280;10536;51.582;5.016;2022-09-23T10:12:44;101589.69;;;20.51;100.00
20752;BME280;10536;51.582;5.016;2022-09-23T10:17:49;101587.13;;;20.49;100.00
20752;BME280;10536;51.582;5.016;2022-09-23T10:22:51;101581.75;;;20.73;100.00
20752;BME280;10536;51.582;5.016;2022-09-23T10:27:52;101575.56;;;20.54;100.00
20752;BME280;10536;51.582;5.016;2022-09-23T10:32:54;101573.31;;;20.85;100.00
20752;BME280;10536;51.582;5.016;2022-09-23T10:37:57;101579.06;;;21.14;100.00
20752;BME280;10536;51.582;5.016;2022-09-23T11:26:38;101567.78;;;22.58;100.00
20752;BME280;10536;51.582;5.016;2022-09-23T11:32:00;101566.69;;;22.79;100.00
20752;BME280;10536;51.582;5.016;2022-09-23T11:37:10;101552.38;;;22.50;100.00
20752;BME280;10536;51.582;5.016;2022-09-23T11:42:21;101556.91;;;22.81;100.00
20752;BME280;10536;51.582;5.016;2022-09-23T11:47:26;101550.63;;;23.00;100.00
20752;BME280;10536;51.582;5.016;2022-09-23T11:52:39;101552.16;;;22.71;100.00
20752;BME280;10536;51.582;5.016;2022-09-23T11:57:49;101556.13;;;22.79;100.00
20752;BME280;10536;51.582;5.016;2022-09-23T12:08:29;101550.25;;;23.08;100.00
20752;BME280;10536;51.582;5.016;2022-09-23T12:13:38;101542.63;;;23.01;100.00
20752;BME280;10536;51.582;5.016;2022-09-23T12:18:45;101540.31;;;22.79;100.00
20752;BME280;10536;51.582;5.016;2022-09-23T12:23:58;101535.94;;;22.78;100.00
20752;BME280;10536;51.582;5.016;2022-09-23T12:29:04;101530.34;;;22.84;100.00
20752;BME280;10536;51.582;5.016;2022-09-23T12:34:21;101535.94;;;23.12;100.00
20752;BME280;10536;51.582;5.016;2022-09-23T12:39:28;101522.94;;;23.24;100.00
20752;BME280;10536;51.582;5.016;2022-09-23T12:44:38;101524.13;;;23.03;100.00
20752;BME280;10536;51.582;5.016;2022-09-23T12:49:41;101520.69;;;23.01;100.00
20752;BME280;10536;51.582;5.016;2022-09-23T13:05:21;101528.47;;;22.86;100.00
20752;BME280;10536;51.582;5.016;2022-09-23T13:15:49;101534.50;;;22.88;100.00
20752;BME280;10536;51.582;5.016;2022-09-23T13:20:52;101524.72;;;22.91;100.00
20752;BME280;10536;51.582;5.016;2022-09-23T13:26:08;101506.53;;;22.86;100.00
20752;BME280;10536;51.582;5.016;2022-09-23T13:31:14;101496.84;;;23.02;100.00
20752;BME280;10536;51.582;5.016;2022-09-23T13:36:17;101494.22;;;23.02;100.00
20752;BME280;10536;51.582;5.016;2022-09-23T13:41:22;101490.09;;;23.14;100.00
20752;BME280;10536;51.582;5.016;2022-09-23T13:46:29;101493.59;;;22.97;100.00
20752;BME280;10536;51.582;5.016;2022-09-23T13:51:33;101489.38;;;22.95;100.00
20752;BME280;10536;51.582;5.016;2022-09-23T13:56:34;101482.75;;;23.19;100.00
20752;BME280;10536;51.582;5.016;2022-09-23T14:01:35;101477.47;;;23.03;100.00
20752;BME280;10536;51.582;5.016;2022-09-23T14:06:38;101474.94;;;22.84;100.00
20752;BME280;10536;51.582;5.016;2022-09-23T14:11:40;101474.59;;;22.91;100.00
20752;BME280;10536;51.582;5.016;2022-09-23T14:16:41;101468.00;;;22.83;100.00
20752;BME280;10536;51.582;5.016;2022-09-23T14:21:54;101475.34;;;22.61;100.00
20752;BME280;10536;51.582;5.016;2022-09-23T14:26:58;101468.53;;;22.57;100.00
20752;BME280;10536;51.582;5.016;2022-09-23T14:32:02;101472.22;;;22.37;100.00
20752;BME280;10536;51.582;5.016;2022-09-23T14:43:00;101462.06;;;22.12;100.00
20752;BME280;10536;51.582;5.016;2022-09-23T14:48:06;101459.44;;;22.29;100.00
20752;BME280;10536;51.582;5.016;2022-09-23T14:58:26;101450.00;;;22.07;100.00
20752;BME280;10536;51.582;5.016;2022-09-23T15:03:29;101447.28;;;22.09;100.00
20752;BME280;10536;51.582;5.016;2022-09-23T15:08:32;101446.25;;;22.12;100.00
20752;BME280;10536;51.582;5.016;2022-09-23T15:13:37;101444.97;;;21.85;100.00
20752;BME280;10536;51.582;5.016;2022-09-23T15:18:42;101440.09;;;21.95;100.00
20752;BME280;10536;51.582;5.016;2022-09-23T15:23:45;101439.22;;;21.95;100.00
20752;BME280;10536;51.582;5.016;2022-09-23T15:29:08;101443.56;;;22.13;100.00
20752;BME280;10536;51.582;5.016;2022-09-23T15:34:09;101435.50;;;21.99;100.00
20752;BME280;10536;51.582;5.016;2022-09-23T15:39:10;101439.53;;;21.88;100.00
20752;BME280;10536;51.582;5.016;2022-09-23T15:44:14;101436.69;;;21.93;100.00
20752;BME280;10536;51.582;5.016;2022-09-23T15:54:27;101430.31;;;21.62;100.00
20752;BME280;10536;51.582;5.016;2022-09-23T15:59:28;101422.66;;;21.75;100.00
20752;BME280;10536;51.582;5.016;2022-09-23T16:04:30;101429.38;;;21.63;100.00
20752;BME280;10536;51.582;5.016;2022-09-23T16:09:30;101426.16;;;21.39;100.00
20752;BME280;10536;51.582;5.016;2022-09-23T16:14:31;101423.00;;;21.50;100.00
20752;BME280;10536;51.582;5.016;2022-09-23T16:19:32;101418.19;;;21.41;100.00
20752;BME280;10536;51.582;5.016;2022-09-23T16:24:33;101420.16;;;21.18;100.00
20752;BME280;10536;51.582;5.016;2022-09-23T16:29:34;101411.88;;;21.26;100.00
20752;BME280;10536;51.582;5.016;2022-09-23T16:34:34;101415.06;;;21.15;100.00
20752;BME280;10536;51.582;5.016;2022-09-23T16:39:35;101415.66;;;21.20;100.00
20752;BME280;10536;51.582;5.016;2022-09-23T16:44:35;101413.00;;;21.03;100.00
20752;BME280;10536;51.582;5.016;2022-09-23T16:49:36;101416.69;;;20.99;100.00
20752;BME280;10536;51.582;5.016;2022-09-23T16:54:37;101415.06;;;20.96;100.00
20752;BME280;10536;51.582;5.016;2022-09-23T16:59:38;101411.78;;;21.10;100.00
20752;BME280;10536;51.582;5.016;2022-09-23T17:04:57;101418.13;;;20.68;100.00
20752;BME280;10536;51.582;5.016;2022-09-23T17:10:00;101411.84;;;20.51;100.00
20752;BME280;10536;51.582;5.016;2022-09-23T17:15:04;101415.16;;;20.36;100.00
20752;BME280;10536;51.582;5.016;2022-09-23T17:20:06;101418.66;;;20.56;100.00
20752;BME280;10536;51.582;5.016;2022-09-23T17:25:08;101414.03;;;20.62;100.00
20752;BME280;10536;51.582;5.016;2022-09-23T17:30:09;101422.75;;;20.42;100.00
20752;BME280;10536;51.582;5.016;2022-09-23T17:35:10;101419.50;;;20.37;100.00
20752;BME280;10536;51.582;5.016;2022-09-23T17:40:11;101432.13;;;19.88;100.00
20752;BME280;10536;51.582;5.016;2022-09-23T17:45:11;101428.53;;;19.90;100.00
20752;BME280;10536;51.582;5.016;2022-09-23T17:50:12;101427.91;;;19.84;100.00
20752;BME280;10536;51.582;5.016;2022-09-23T17:55:13;101428.84;;;19.83;100.00
20752;BME280;10536;51.582;5.016;2022-09-23T18:00:16;101435.53;;;19.90;100.00
20752;BME280;10536;51.582;5.016;2022-09-23T18:05:16;101436.72;;;19.83;100.00
20752;BME280;10536;51.582;5.016;2022-09-23T18:10:17;101431.28;;;19.65;100.00
20752;BME280;10536;51.582;5.016;2022-09-23T18:15:18;101426.13;;;19.42;100.00
20752;BME280;10536;51.582;5.016;2022-09-23T18:20:19;101425.09;;;19.46;100.00
20752;BME280;10536;51.582;5.016;2022-09-23T18:25:22;101416.34;;;19.67;100.00
20752;BME280;10536;51.582;5.016;2022-09-23T18:30:24;101416.34;;;19.67;100.00
20752;BME280;10536;51.582;5.016;2022-09-23T18:35:24;101420.94;;;19.40;100.00
20752;BME280;10536;51.582;5.016;2022-09-23T18:40:24;101418.47;;;18.91;100.00
20752;BME280;10536;51.582;5.016;2022-09-23T18:45:25;101430.53;;;18.72;100.00
20752;BME280;10536;51.582;5.016;2022-09-23T18:50:25;101420.88;;;18.98;100.00
20752;BME280;10536;51.582;5.016;2022-09-23T18:55:43;101424.66;;;18.90;100.00
20752;BME280;10536;51.582;5.016;2022-09-23T19:00:43;101418.31;;;19.40;100.00
20752;BME280;10536;51.582;5.016;2022-09-23T19:05:44;101423.81;;;19.12;100.00
20752;BME280;10536;51.582;5.016;2022-09-23T19:10:53;101417.53;;;19.16;100.00
20752;BME280;10536;51.582;5.016;2022-09-23T19:15:55;101431.13;;;19.04;100.00
20752;BME280;10536;51.582;5.016;2022-09-23T19:21:00;101420.75;;;19.23;100.00
20752;BME280;10536;51.582;5.016;2022-09-23T19:26:02;101421.44;;;19.28;100.00
20752;BME280;10536;51.582;5.016;2022-09-23T19:31:17;101420.63;;;19.04;100.00
20752;BME280;10536;51.582;5.016;2022-09-23T19:36:22;101420.81;;;19.21;100.00
20752;BME280;10536;51.582;5.016;2022-09-23T19:41:24;101419.34;;;19.36;100.00
20752;BME280;10536;51.582;5.016;2022-09-23T19:46:26;101414.13;;;19.36;100.00
20752;BME280;10536;51.582;5.016;2022-09-23T19:51:27;101424.09;;;19.70;100.00
20752;BME280;10536;51.582;5.016;2022-09-23T19:56:29;101416.34;;;19.88;100.00
20752;BME280;10536;51.582;5.016;2022-09-23T20:01:30;101406.22;;;19.80;100.00
20752;BME280;10536;51.582;5.016;2022-09-23T20:06:32;101409.06;;;19.74;100.00
20752;BME280;10536;51.582;5.016;2022-09-23T20:11:33;101405.16;;;19.62;100.00
20752;BME280;10536;51.582;5.016;2022-09-23T20:16:35;101403.16;;;19.47;100.00
20752;BME280;10536;51.582;5.016;2022-09-23T20:21:36;101407.31;;;19.75;100.00
20752;BME280;10536;51.582;5.016;2022-09-23T20:26:39;101401.50;;;19.66;100.00
20752;BME280;10536;51.582;5.016;2022-09-23T20:31:59;101398.13;;;19.85;100.00
20752;BME280;10536;51.582;5.016;2022-09-23T20:36:59;101394.91;;;19.78;100.00
20752;BME280;10536;51.582;5.016;2022-09-23T20:42:03;101390.63;;;19.33;100.00
20752;BME280;10536;51.582;5.016;2022-09-23T20:47:07;101385.34;;;19.12;100.00
20752;BME280;10536;51.582;5.016;2022-09-23T20:52:13;101384.88;;;19.23;100.00
20752;BME280;10536;51.582;5.016;2022-09-23T20:57:13;101380.59;;;19.00;100.00
20752;BME280;10536;51.582;5.016;2022-09-23T21:02:15;101380.56;;;19.22;100.00
20752;BME280;10536;51.582;5.016;2022-09-23T21:07:15;101384.97;;;19.22;100.00
20752;BME280;10536;51.582;5.016;2022-09-23T21:12:17;101387.63;;;18.98;100.00
20752;BME280;10536;51.582;5.016;2022-09-23T21:17:17;101392.47;;;18.63;100.00
20752;BME280;10536;51.582;5.016;2022-09-23T21:22:18;101382.53;;;18.71;100.00
20752;BME280;10536;51.582;5.016;2022-09-23T21:27:18;101386.97;;;18.69;100.00
20752;BME280;10536;51.582;5.016;2022-09-23T21:32:19;101384.13;;;18.99;100.00
20752;BME280;10536;51.582;5.016;2022-09-23T21:37:20;101377.91;;;18.78;100.00
20752;BME280;10536;51.582;5.016;2022-09-23T21:42:21;101378.41;;;19.54;100.00
20752;BME280;10536;51.582;5.016;2022-09-23T21:47:23;101374.28;;;19.26;100.00
20752;BME280;10536;51.582;5.016;2022-09-23T21:52:25;101377.34;;;19.38;100.00
20752;BME280;10536;51.582;5.016;2022-09-23T21:57:31;101379.25;;;19.12;100.00
20752;BME280;10536;51.582;5.016;2022-09-23T22:02:32;101379.66;;;19.23;100.00
20752;BME280;10536;51.582;5.016;2022-09-23T22:07:36;101377.44;;;19.34;100.00
20752;BME280;10536;51.582;5.016;2022-09-23T22:12:37;101373.00;;;19.37;100.00
20752;BME280;10536;51.582;5.016;2022-09-23T22:17:37;101373.34;;;19.27;100.00
20752;BME280;10536;51.582;5.016;2022-09-23T22:22:38;101360.31;;;19.04;100.00
20752;BME280;10536;51.582;5.016;2022-09-23T22:27:38;101369.13;;;19.03;100.00
20752;BME280;10536;51.582;5.016;2022-09-23T22:32:59;101363.34;;;18.94;100.00
20752;BME280;10536;51.582;5.016;2022-09-23T22:38:06;101368.69;;;18.21;100.00
20752;BME280;10536;51.582;5.016;2022-09-23T22:43:06;101354.72;;;19.13;100.00
20752;BME280;10536;51.582;5.016;2022-09-23T22:48:11;101365.34;;;19.10;100.00
20752;BME280;10536;51.582;5.016;2022-09-23T22:53:12;101354.78;;;18.66;100.00
20752;BME280;10536;51.582;5.016;2022-09-23T22:58:13;101355.44;;;18.49;100.00
20752;BME280;10536;51.582;5.016;2022-09-23T23:03:13;101349.69;;;18.15;100.00
20752;BME280;10536;51.582;5.016;2022-09-23T23:08:19;101344.44;;;18.15;100.00
20752;BME280;10536;51.582;5.016;2022-09-23T23:13:21;101342.47;;;18.22;100.00
20752;BME280;10536;51.582;5.016;2022-09-23T23:18:22;101335.47;;;18.23;100.00
20752;BME280;10536;51.582;5.016;2022-09-23T23:23:23;101334.59;;;18.46;100.00
20752;BME280;10536;51.582;5.016;2022-09-23T23:28:24;101337.44;;;18.16;100.00
20752;BME280;10536;51.582;5.016;2022-09-23T23:33:24;101331.25;;;18.19;100.00
20752;BME280;10536;51.582;5.016;2022-09-23T23:38:25;101324.06;;;18.00;100.00
20752;BME280;10536;51.582;5.016;2022-09-23T23:43:25;101313.94;;;17.91;100.00
20752;BME280;10536;51.582;5.016;2022-09-23T23:48:27;101310.53;;;17.89;100.00
20752;BME280;10536;51.582;5.016;2022-09-23T23:53:29;101309.44;;;17.69;100.00
20752;BME280;10536;51.582;5.016;2022-09-23T23:58:30;101307.41;;;17.77;100.00
